Wind From: 10-12-2017 19:04 Until: 11-12-2017 16:00 warning for: Wind Level: Orange info button

Power and phone distribution networks may be disrupted for relatively long periods., Roofs and chimneys can be damaged. , Tree branches may break. , Vehicles can be deported. , Traffic may be disrupted, particularly on secondary roads in forest areas. Limit your trips. , Limit your speed in highway driving, especially if you drive a vehicle or hitch sensitive to wind. , Do not go for walks in forests or along the coast., In town, be vigilant against possible falling objects., Do not work on roofs and do not touch any electrical line fallen on the ground., Store or secure sensitive objects to wind or likely to be damaged., Always install power generators outside buildings. 


Meteo18 Weather Cam more information Meteo18 Weather Cam


Thunder radar more information blitzortung!


Rain radar more information rain snow radar


Visit our other weather sites:

Template documentation
and downloads

And another site



Weather Underground History page Text

Daily Summary for May 31, 2017 Units:  English    Metric   Both
« Previous Day
Next Day »
Daily Weekly Monthly Yearly Custom
  High: Low: Average:
Temperature: 73.6 °F 57.9 °F 65.7 °F
Dew Point: 62.4 °F 54.3 °F 58.3 °F
Humidity: 88 % 61 % 78 %
Wind Speed: 12 mph 0 mph 3 mph
Wind Gust: 15 mph - -
Wind:- - ESE
Pressure: 30.2 in 30.1 in -
Precipitation: 0.02 in    
Historical Graphs
 
 
Tabular Data for May 31, 2017
Time Temperature Dew Point Pressure Wind Wind Speed Wind Gust Humidity Rainfall Rate (Hourly)
00:02 63.3 °F 57 °F 30.2 in North 1 mph 3 mph 80 % 0 in
00:12 63.1 °F 56.8 °F 30.2 in NW 1 mph 3 mph 80 % 0 in
00:17 63.1 °F 56.8 °F 30.2 in NW 1 mph 3 mph 80 % 0 in
00:22 63.1 °F 56.8 °F 30.2 in North 2 mph 3 mph 80 % 0 in
00:32 62.8 °F 56.5 °F 30.2 in North 1 mph 4 mph 80 % 0 in
00:42 62.6 °F 56.3 °F 30.2 in North 2 mph 4 mph 80 % 0 in
00:52 62.4 °F 56.1 °F 30.2 in NNW 1 mph 4 mph 80 % 0 in
00:57 62.4 °F 56.1 °F 30.2 in NNE 3 mph 4 mph 80 % 0 in
01:02 62.4 °F 56.1 °F 30.2 in North 1 mph 4 mph 80 % 0 in
01:07 62.2 °F 55.9 °F 30.2 in Calm   4 mph 80 % 0 in
01:12 62.2 °F 55.9 °F 30.2 in NNW 4 mph 4 mph 80 % 0 in
01:17 62.1 °F 55.8 °F 30.2 in NNE 4 mph 5 mph 80 % 0 in
01:22 62.1 °F 55.8 °F 30.2 in North 6 mph 6 mph 80 % 0 in
01:32 61.9 °F 55.6 °F 30.2 in NW 1 mph 6 mph 80 % 0 in
01:42 61.5 °F 55.6 °F 30.2 in NNW 1 mph 6 mph 81 % 0 in
01:47 61.5 °F 55.6 °F 30.2 in NNE 2 mph 4 mph 81 % 0 in
01:52 61.5 °F 55.6 °F 30.2 in Calm   5 mph 81 % 0 in
01:57 61.5 °F 55.6 °F 30.2 in North 1 mph 7 mph 81 % 0 in
02:02 61.7 °F 55.8 °F 30.2 in Calm   7 mph 81 % 0 in
02:07 61.9 °F 55.9 °F 30.2 in NW 1 mph 5 mph 81 % 0 in
02:12 61.9 °F 55.9 °F 30.2 in NNW 1 mph 5 mph 81 % 0 in
02:22 61.9 °F 55.9 °F 30.2 in North 2 mph 3 mph 81 % 0 in
02:27 61.9 °F 55.9 °F 30.2 in North 2 mph 4 mph 81 % 0 in
02:32 61.9 °F 55.9 °F 30.2 in NNW 1 mph 4 mph 81 % 0 in
02:42 61.7 °F 55.8 °F 30.2 in NNE 4 mph 5 mph 81 % 0 in
02:47 61.5 °F 55.9 °F 30.2 in NNE 3 mph 8 mph 82 % 0 in
02:52 61.5 °F 55.9 °F 30.2 in Calm   8 mph 82 % 0 in
02:57 61.3 °F 56.1 °F 30.2 in ENE 1 mph 6 mph 83 % 0 in
03:02 61.3 °F 56.1 °F 30.2 in NE 2 mph 7 mph 83 % 0 in
03:12 61.2 °F 55.9 °F 30.2 in North 2 mph 9 mph 83 % 0 in
03:17 61.2 °F 56.3 °F 30.2 in North 3 mph 9 mph 84 % 0 in
03:22 60.8 °F 55.9 °F 30.2 in NE 1 mph 9 mph 84 % 0 in
03:27 60.6 °F 56.1 °F 30.2 in North 2 mph 8 mph 85 % 0 in
03:32 60.4 °F 55.9 °F 30.2 in NE 2 mph 6 mph 85 % 0 in
03:42 60.3 °F 56.1 °F 30.2 in North 4 mph 6 mph 86 % 0 in
03:47 60.1 °F 55.9 °F 30.2 in North 5 mph 8 mph 86 % 0 in
03:52 60.1 °F 55.9 °F 30.2 in NNW 1 mph 8 mph 86 % 0 in
03:57 60.1 °F 55.9 °F 30.2 in NNW 3 mph 9 mph 86 % 0 in
04:02 59.9 °F 55.8 °F 30.2 in North 4 mph 9 mph 86 % 0 in
04:12 59.9 °F 55.8 °F 30.2 in NW 3 mph 9 mph 86 % 0 in
04:17 59.9 °F 55.8 °F 30.2 in NNW 1 mph 8 mph 86 % 0 in
04:22 59.9 °F 55.8 °F 30.2 in NNE 1 mph 6 mph 86 % 0 in
04:32 59.7 °F 55.8 °F 30.2 in NNW 1 mph 5 mph 87 % 0 in
04:42 59.7 °F 55.6 °F 30.2 in NNE 2 mph 6 mph 86 % 0 in
04:47 59.5 °F 55.6 °F 30.2 in NNE 2 mph 7 mph 87 % 0 in
04:52 59.5 °F 55.6 °F 30.2 in NNW 2 mph 7 mph 87 % 0 in
04:57 59.4 °F 55.4 °F 30.2 in NE 3 mph 7 mph 87 % 0 in
05:12 59 °F 55.2 °F 30.2 in North 2 mph 6 mph 87 % 0 in
05:17 58.6 °F 54.9 °F 30.2 in NE 4 mph 6 mph 87 % 0 in
05:22 58.6 °F 55 °F 30.2 in NE 4 mph 7 mph 88 % 0 in
05:32 58.5 °F 54.7 °F 30.2 in NNW 3 mph 8 mph 87 % 0 in
05:42 58.5 °F 54.7 °F 30.2 in North 3 mph 8 mph 87 % 0 in
05:47 58.3 °F 54.5 °F 30.2 in NE 3 mph 8 mph 87 % 0 in
05:52 58.3 °F 54.5 °F 30.2 in North 4 mph 8 mph 87 % 0 in
05:57 58.3 °F 54.5 °F 30.2 in NNE 2 mph 8 mph 87 % 0 in
06:02 58.3 °F 54.5 °F 30.2 in East 3 mph 9 mph 87 % 0 in
06:07 58.3 °F 54.5 °F 30.2 in NNE 5 mph 9 mph 87 % 0 in
06:17 58.1 °F 54.5 °F 30.2 in NE 3 mph 7 mph 88 % 0 in
06:22 57.9 °F 54.3 °F 30.2 in NNW 3 mph 7 mph 88 % 0 in
06:32 58.1 °F 54.5 °F 30.2 in North 4 mph 8 mph 88 % 0 in
06:37 58.3 °F 54.7 °F 30.2 in NE 5 mph 8 mph 88 % 0 in
06:42 58.5 °F 54.7 °F 30.2 in Calm   9 mph 87 % 0 in
06:47 58.6 °F 54.9 °F 30.2 in NE 5 mph 9 mph 87 % 0 in
06:57 58.8 °F 54.7 °F 30.2 in North 4 mph 9 mph 86 % 0 in
07:02 59 °F 54.9 °F 30.2 in North 3 mph 9 mph 86 % 0 in
07:12 59 °F 54.9 °F 30.2 in North 2 mph 11 mph 86 % 0 in
07:22 58.8 °F 54.7 °F 30.2 in North 6 mph 9 mph 86 % 0 in
07:32 59.2 °F 55 °F 30.2 in NNW 3 mph 10 mph 86 % 0 in
07:37 59.4 °F 55.2 °F 30.2 in NNE 4 mph 10 mph 86 % 0 in
07:42 59.7 °F 55.6 °F 30.2 in NE 10 mph 10 mph 86 % 0 in
07:52 60.4 °F 55.6 °F 30.2 in NNE 5 mph 11 mph 84 % 0 in
07:57 60.8 °F 55.9 °F 30.2 in NNE 6 mph 11 mph 84 % 0 in
08:02 61.2 °F 55.9 °F 30.2 in ENE 2 mph 9 mph 83 % 0 in
08:12 61.9 °F 55.9 °F 30.2 in ENE 2 mph 9 mph 81 % 0 in
08:17 62.1 °F 55.8 °F 30.2 in NNE 6 mph 9 mph 80 % 0 in
08:22 62.2 °F 55.9 °F 30.2 in North 3 mph 10 mph 80 % 0 in
08:32 62.8 °F 56.1 °F 30.2 in North 6 mph 11 mph 79 % 0 in
08:42 63.1 °F 56.5 °F 30.2 in NNE 8 mph 11 mph 79 % 0 in
08:52 63.1 °F 56.1 °F 30.2 in NE 4 mph 11 mph 78 % 0 in
09:02 63.1 °F 56.5 °F 30.2 in ENE 2 mph 11 mph 79 % 0 in
09:12 63.5 °F 56.8 °F 30.2 in NNW 2 mph 10 mph 79 % 0 in
09:17 64 °F 57 °F 30.2 in ENE 5 mph 10 mph 78 % 0 in
09:22 64.2 °F 57.2 °F 30.2 in NE 7 mph 10 mph 78 % 0 in
09:32 63.7 °F 56.7 °F 30.2 in NNE 6 mph 12 mph 78 % 0 in
09:42 64.6 °F 57.9 °F 30.2 in NNE 6 mph 12 mph 79 % 0 in
09:47 64.8 °F 57.4 °F 30.2 in NE 5 mph 12 mph 77 % 0 in
09:52 65.1 °F 57 °F 30.2 in NE 8 mph 10 mph 75 % 0 in
10:02 65.5 °F 58.1 °F 30.2 in NNE 8 mph 13 mph 77 % 0 in
10:07 65.8 °F 58.5 °F 30.2 in NE 2 mph 13 mph 77 % 0 in
10:12 66 °F 58.3 °F 30.2 in NW 6 mph 9 mph 76 % 0 in
10:17 66.4 °F 58.3 °F 30.2 in NE 3 mph 9 mph 75 % 0 in
10:22 66.4 °F 58.3 °F 30.2 in NE 7 mph 11 mph 75 % 0 in
10:32 66.9 °F 57.9 °F 30.2 in NE 6 mph 11 mph 73 % 0 in
10:37 67.3 °F 58.6 °F 30.2 in NNE 8 mph 11 mph 74 % 0 in
10:42 67.1 °F 58.1 °F 30.2 in ENE 6 mph 13 mph 73 % 0 in
10:52 67.5 °F 58.1 °F 30.2 in NNE 3 mph 13 mph 72 % 0 in
11:02 67.8 °F 58.5 °F 30.2 in NNE 12 mph 12 mph 72 % 0 in
11:12 68.4 °F 59 °F 30.2 in NE 4 mph 15 mph 72 % 0 in
11:22 68.2 °F 58.8 °F 30.2 in ENE 5 mph 12 mph 72 % 0 in
11:32 68.4 °F 59 °F 30.2 in NNE 10 mph 12 mph 72 % 0 in
11:37 68.5 °F 59.9 °F 30.2 in NW 2 mph 12 mph 74 % 0 in
11:42 68.7 °F 59.4 °F 30.2 in NE 7 mph 12 mph 72 % 0 in
11:52 69.3 °F 60.6 °F 30.2 in East 2 mph 12 mph 74 % 0 in
12:02 69.8 °F 59.9 °F 30.2 in NE 9 mph 11 mph 71 % 0 in
12:12 69.8 °F 59.9 °F 30.2 in NE 4 mph 12 mph 71 % 0 in
12:17 70.2 °F 60.3 °F 30.2 in NNW 4 mph 12 mph 71 % 0 in
12:22 70.2 °F 59.9 °F 30.2 in NE 5 mph 12 mph 70 % 0 in
12:32 71.1 °F 60.4 °F 30.2 in NNE 7 mph 10 mph 69 % 0 in
12:37 71.1 °F 61.2 °F 30.2 in NNE 7 mph 10 mph 71 % 0 in
12:42 71.2 °F 61 °F 30.2 in NNE 4 mph 11 mph 70 % 0 in
12:47 71.2 °F 60.1 °F 30.2 in NE 5 mph 11 mph 68 % 0 in
12:52 70.5 °F 60.3 °F 30.2 in NNE 6 mph 11 mph 70 % 0 in
13:02 71.1 °F 60.4 °F 30.2 in North 2 mph 12 mph 69 % 0 in
13:12 70.9 °F 59.7 °F 30.2 in NNE 7 mph 11 mph 68 % 0 in
13:22 71.1 °F 59.9 °F 30.2 in NNE 2 mph 11 mph 68 % 0 in
13:32 71.4 °F 59 °F 30.2 in NE 3 mph 11 mph 65 % 0 in
13:37 71.8 °F 60.3 °F 30.2 in NE 6 mph 11 mph 67 % 0 in
13:42 72.1 °F 60.6 °F 30.2 in NW 1 mph 11 mph 67 % 0 in
13:52 71.8 °F 59.7 °F 30.2 in NE 4 mph 9 mph 66 % 0 in
14:02 72.3 °F 59.9 °F 30.2 in North 8 mph 13 mph 65 % 0 in
14:12 72.9 °F 59.9 °F 30.2 in NNE 5 mph 13 mph 64 % 0 in
14:22 72.3 °F 58.1 °F 30.2 in NE 1 mph 10 mph 61 % 0 in
14:32 72.7 °F 60.3 °F 30.2 in ENE 6 mph 9 mph 65 % 0 in
14:37 72.7 °F 59.4 °F 30.2 in ENE 7 mph 9 mph 63 % 0 in
14:42 72.3 °F 59.9 °F 30.2 in NE 5 mph 9 mph 65 % 0 in
14:47 72 °F 59.9 °F 30.2 in NNE 8 mph 9 mph 66 % 0 in
14:57 72.3 °F 59.9 °F 30.2 in NE 2 mph 8 mph 65 % 0 in
15:02 72.1 °F 60.1 °F 30.2 in NNE 2 mph 8 mph 66 % 0 in
15:07 72.1 °F 60.1 °F 30.2 in NNE 1 mph 9 mph 66 % 0 in
15:12 72.3 °F 60.8 °F 30.2 in NE 4 mph 9 mph 67 % 0 in
15:17 72.7 °F 60.3 °F 30.2 in NNE 7 mph 9 mph 65 % 0 in
15:22 72.3 °F 59.9 °F 30.2 in North 5 mph 10 mph 65 % 0 in
15:27 72.1 °F 60.1 °F 30.2 in NE 5 mph 10 mph 66 % 0 in
15:37 72 °F 60.4 °F 30.2 in NE 4 mph 11 mph 67 % 0 in
15:42 72 °F 59.5 °F 30.2 in NE 9 mph 11 mph 65 % 0 in
15:47 72 °F 59.2 °F 30.2 in NE 5 mph 11 mph 64 % 0 in
15:52 72.3 °F 59 °F 30.2 in ENE 3 mph 11 mph 63 % 0 in
15:57 72.3 °F 59.9 °F 30.2 in ENE 3 mph 11 mph 65 % 0 in
16:02 72.7 °F 60.3 °F 30.2 in ESE 3 mph 9 mph 65 % 0 in
16:12 72.9 °F 60.8 °F 30.2 in North 2 mph 8 mph 66 % 0 in
16:22 73.2 °F 60.8 °F 30.2 in North 3 mph 9 mph 65 % 0 in
16:27 73.4 °F 60.1 °F 30.2 in NE 5 mph 9 mph 63 % 0 in
16:32 73.2 °F 60.8 °F 30.2 in NNE 4 mph 9 mph 65 % 0 in
16:37 73.2 °F 60.3 °F 30.2 in NNE 4 mph 10 mph 64 % 0 in
16:42 73.6 °F 60.3 °F 30.2 in Calm   10 mph 63 % 0 in
16:52 73.6 °F 59.7 °F 30.2 in NNE 7 mph 10 mph 62 % 0 in
16:57 73.4 °F 60.4 °F 30.2 in ENE 5 mph 9 mph 64 % 0 in
17:02 72.9 °F 59.9 °F 30.2 in North 2 mph 8 mph 64 % 0 in
17:12 72.3 °F 60.3 °F 30.2 in NNE 4 mph 8 mph 66 % 0 in
17:17 72.1 °F 60.1 °F 30.2 in NE 4 mph 9 mph 66 % 0 in
17:22 72.1 °F 59.7 °F 30.2 in NNE 1 mph 9 mph 65 % 0 in
17:32 72.1 °F 60.1 °F 30.2 in ENE 2 mph 6 mph 66 % 0 in
17:37 72 °F 60.4 °F 30.2 in NE 4 mph 6 mph 67 % 0 in
17:42 71.6 °F 60.4 °F 30.2 in NE 3 mph 6 mph 68 % 0 in
17:47 71.4 °F 60.3 °F 30.2 in ENE 5 mph 6 mph 68 % 0 in
17:52 71.1 °F 60.4 °F 30.2 in NNE 4 mph 7 mph 69 % 0 in
17:57 70.9 °F 60.3 °F 30.2 in NE 3 mph 8 mph 69 % 0 in
18:02 70.9 °F 59.7 °F 30.2 in NE 2 mph 8 mph 68 % 0 in
18:07 70.5 °F 59.9 °F 30.2 in NNE 5 mph 8 mph 69 % 0 in
18:17 69.6 °F 60.6 °F 30.2 in NNE 6 mph 8 mph 73 % 0 in
18:27 68.9 °F 60.6 °F 30.2 in NE 4 mph 9 mph 75 % 0 in
18:32 68.7 °F 61.2 °F 30.2 in NE 4 mph 9 mph 77 % 0 in
18:42 68.4 °F 61.5 °F 30.2 in North 2 mph 8 mph 79 % 0.01 in
18:52 68.2 °F 62.1 °F 30.2 in Calm   6 mph 81 % 0.01 in
19:02 67.8 °F 62.1 °F 30.2 in NNE 2 mph 5 mph 82 % 0.02 in
19:12 67.8 °F 62.1 °F 30.1 in North 1 mph 4 mph 82 % 0.02 in
19:17 67.6 °F 61.9 °F 30.2 in NE 3 mph 4 mph 82 % 0.02 in
19:22 67.6 °F 62.2 °F 30.2 in NNE 2 mph 3 mph 83 % 0.02 in
19:32 67.5 °F 62.4 °F 30.2 in NNE 1 mph 4 mph 84 % 0.02 in
19:37 67.5 °F 62.1 °F 30.2 in NNE 3 mph 4 mph 83 % 0.01 in
19:42 67.5 °F 62.4 °F 30.2 in NE 1 mph 4 mph 84 % 0.01 in
19:52 67.3 °F 62.2 °F 30.2 in Calm   4 mph 84 % 0 in
19:57 67.3 °F 61.9 °F 30.2 in NNE 1 mph 3 mph 83 % 0 in
20:02 67.5 °F 62.1 °F 30.2 in North 1 mph 3 mph 83 % 0 in
20:12 67.5 °F 62.1 °F 30.2 in Calm   3 mph 83 % 0 in
20:17 67.6 °F 62.2 °F 30.2 in North 1 mph 3 mph 83 % 0 in
20:22 67.6 °F 62.2 °F 30.2 in Calm   3 mph 83 % 0 in
20:32 67.6 °F 62.2 °F 30.2 in North 2 mph 2 mph 83 % 0 in
20:42 67.6 °F 61.9 °F 30.2 in Calm   2 mph 82 % 0 in
20:47 67.6 °F 61.9 °F 30.2 in Calm   3 mph 82 % 0 in
20:52 67.6 °F 61.9 °F 30.2 in Calm   3 mph 82 % 0 in
20:57 67.6 °F 61.5 °F 30.2 in Calm   1 mph 81 % 0 in
21:02 67.8 °F 61.7 °F 30.2 in Calm   1 mph 81 % 0 in
21:12 68.2 °F 62.1 °F 30.2 in Calm   1 mph 81 % 0 in
21:17 67.8 °F 61.3 °F 30.2 in Calm   1 mph 80 % 0 in
21:22 67.6 °F 61.2 °F 30.2 in Calm   1 mph 80 % 0 in
21:27 67.3 °F 61.2 °F 30.2 in Calm     81 % 0 in
21:32 66.9 °F 61 °F 30.2 in Calm     81 % 0 in
21:42 66.6 °F 60.6 °F 30.2 in Calm     81 % 0 in
21:47 66.4 °F 60.8 °F 30.2 in Calm     82 % 0 in
21:57 65.7 °F 60.6 °F 30.2 in Calm     84 % 0 in
22:02 65.1 °F 60.4 °F 30.2 in Calm     85 % 0 in
22:12 64.8 °F 60.1 °F 30.2 in Calm     85 % 0 in
22:22 64.8 °F 59.9 °F 30.2 in Calm   1 mph 84 % 0 in
22:32 64.2 °F 59.5 °F 30.2 in NE 2 mph 4 mph 85 % 0 in
22:42 64 °F 59.4 °F 30.2 in NE 1 mph 4 mph 85 % 0 in
22:52 64.6 °F 59.4 °F 30.2 in Calm   3 mph 83 % 0 in
22:57 64.2 °F 59.4 °F 30.2 in Calm   3 mph 84 % 0 in
23:02 64 °F 59.2 °F 30.2 in Calm   2 mph 84 % 0 in
23:12 63.9 °F 59 °F 30.2 in Calm   2 mph 84 % 0 in
23:17 63.7 °F 58.8 °F 30.2 in Calm   1 mph 84 % 0 in
23:22 63.9 °F 59 °F 30.2 in NNE 1 mph 1 mph 84 % 0 in
23:27 63.9 °F 59 °F 30.2 in North 1 mph 2 mph 84 % 0 in
23:32 63.7 °F 58.8 °F 30.2 in North 1 mph 2 mph 84 % 0 in
23:37 63.3 °F 58.8 °F 30.2 in North 1 mph 2 mph 85 % 0 in
23:42 63.1 °F 58.6 °F 30.2 in Calm   2 mph 85 % 0 in
23:47 63.1 °F 58.6 °F 30.2 in Calm   3 mph 85 % 0 in
23:52 63.1 °F 58.6 °F 30.2 in Calm   3 mph 85 % 0 in
Meteo18
Compliments of Weather Underground - 4 mb

Script developed by  Jim McMurry - jmcmurry@mwt.net Adapted for the template by  Wim van der Kuil - Leuven-Template.eu

You find our weather info also at:

European Weather Network

Weather Underground

Equipment we use:

Weather-station
Davis Vue

Weather-program
Meteohub

Weather-server
Raspberry PI 2 B+

Provider
1 and 1

Davis Vue

Meteohub

Raspberry PI 2 B+

1 and 1